Time;durP1;ratioP1;P1;durP2;ratioP2;P2;SDS_P1;SDS_P2;PMS_P1;PMS_P2;Temp;Humidity;BMP_temperature;BMP_pressure;BME280_temperature;BME280_humidity;BME280_pressure;Samples;Min_cycle;Max_cycle;Signal;HPM_P1;HPM_P2
2023/05/15 00:00:59;;;;;;;9.87;5.47;;;;;;;11.51;100.00;95136.53;5020004;28;20233;-74
2023/05/15 00:03:24;;;;;;;7.93;5.50;;;;;;;11.51;100.00;95127.88;5015062;28;20300;-75
2023/05/15 00:05:51;;;;;;;7.90;5.20;;;;;;;11.48;100.00;95123.03;5021272;28;20225;-74
2023/05/15 00:08:16;;;;;;;7.23;5.00;;;;;;;11.45;100.00;95126.03;5015734;28;20226;-76
2023/05/15 00:10:42;;;;;;;6.70;4.80;;;;;;;11.46;100.00;95117.19;5033326;28;20648;-74
2023/05/15 00:13:07;;;;;;;7.90;5.07;;;;;;;11.46;100.00;95120.56;5033699;28;20230;-76
2023/05/15 00:15:33;;;;;;;9.20;5.30;;;;;;;11.42;100.00;95144.75;5039545;28;20262;-72
2023/05/15 00:17:58;;;;;;;5.90;4.50;;;;;;;11.48;100.00;95163.16;5028955;28;21199;-75
2023/05/15 00:20:24;;;;;;;7.97;5.10;;;;;;;11.42;100.00;95161.31;5015650;28;20313;-75
2023/05/15 00:22:49;;;;;;;7.00;4.80;;;;;;;11.40;100.00;95165.13;5008591;28;20648;-74
2023/05/15 00:25:15;;;;;;;7.30;5.10;;;;;;;11.48;100.00;95162.34;5018579;28;20237;-74
2023/05/15 00:27:40;;;;;;;6.63;4.90;;;;;;;11.41;100.00;95172.00;5016597;28;20230;-75
2023/05/15 00:30:06;;;;;;;6.57;4.70;;;;;;;11.19;100.00;95154.78;5034095;28;20238;-76
2023/05/15 00:32:32;;;;;;;6.17;4.60;;;;;;;11.20;100.00;95161.66;5032080;28;20226;-75
2023/05/15 00:34:57;;;;;;;6.97;4.60;;;;;;;11.13;100.00;95166.84;5015772;28;20226;-76
2023/05/15 00:37:23;;;;;;;7.33;4.60;;;;;;;11.21;100.00;95171.13;5006017;28;20230;-75
2023/05/15 00:39:48;;;;;;;8.40;5.00;;;;;;;11.17;100.00;95159.44;5026356;28;20228;-75
2023/05/15 00:42:14;;;;;;;7.83;4.90;;;;;;;11.15;100.00;95151.75;5032709;28;20234;-75
2023/05/15 00:44:40;;;;;;;7.20;4.50;;;;;;;11.10;100.00;95143.69;5017345;28;20307;-76
2023/05/15 00:47:06;;;;;;;7.67;4.83;;;;;;;11.11;100.00;95145.28;5008065;28;20226;-75
2023/05/15 00:49:34;;;;;;;6.77;4.80;;;;;;;11.09;100.00;95154.34;5024945;28;20221;-75
2023/05/15 00:52:02;;;;;;;7.93;5.30;;;;;;;11.06;100.00;95152.94;5028853;28;20230;-75
2023/05/15 00:54:27;;;;;;;7.53;5.30;;;;;;;11.26;100.00;95153.00;5015682;28;20221;-75
2023/05/15 00:56:55;;;;;;;9.83;5.43;;;;;;;11.29;100.00;95161.28;5015938;28;20226;-76
2023/05/15 00:59:24;;;;;;;9.30;5.27;;;;;;;11.21;100.00;95152.78;5016250;28;20238;-75
2023/05/15 01:01:50;;;;;;;10.37;5.63;;;;;;;11.13;100.00;95158.22;5030315;28;20234;-76
2023/05/15 01:04:16;;;;;;;7.63;5.20;;;;;;;11.12;100.00;95154.78;5024508;28;20230;-76
2023/05/15 01:06:41;;;;;;;7.67;5.43;;;;;;;11.15;100.00;95161.44;5031148;28;20221;-75
2023/05/15 01:09:07;;;;;;;8.37;5.63;;;;;;;11.14;100.00;95157.19;5018580;28;20225;-75
2023/05/15 01:11:35;;;;;;;8.60;5.50;;;;;;;10.98;100.00;95150.50;5031161;28;20950;-75
2023/05/15 01:14:05;;;;;;;8.73;5.50;;;;;;;11.05;100.00;95158.38;5032433;28;20233;-75
2023/05/15 01:16:31;;;;;;;8.03;5.13;;;;;;;11.07;100.00;95161.59;5023371;28;20229;-75
2023/05/15 01:18:56;;;;;;;8.47;5.90;;;;;;;11.12;100.00;95153.97;5041931;28;20702;-76
2023/05/15 01:21:34;;;;;;;9.83;6.00;;;;;;;10.95;100.00;95147.47;5027844;28;20245;-74
2023/05/15 01:24:28;;;;;;;9.27;6.10;;;;;;;11.06;100.00;95137.22;5034139;28;20237;-75
2023/05/15 01:27:12;;;;;;;9.70;6.07;;;;;;;10.91;100.00;95138.38;5030759;28;20263;-74
2023/05/15 01:29:40;;;;;;;8.93;5.90;;;;;;;10.86;100.00;95130.31;5028651;28;20241;-75
2023/05/15 01:32:09;;;;;;;8.73;6.40;;;;;;;10.77;100.00;95127.06;5036079;28;20731;-75
2023/05/15 01:34:47;;;;;;;10.43;5.90;;;;;;;10.83;100.00;95115.81;5024408;28;20290;-76
2023/05/15 01:37:12;;;;;;;8.03;5.80;;;;;;;10.86;100.00;95127.69;5032820;28;20229;-75
2023/05/15 01:39:38;;;;;;;10.33;6.20;;;;;;;10.92;100.00;95134.75;5030239;28;20618;-75
2023/05/15 01:42:06;;;;;;;10.10;6.10;;;;;;;10.83;100.00;95128.88;5009214;28;20312;-76
2023/05/15 01:44:37;;;;;;;8.40;5.80;;;;;;;10.78;100.00;95110.34;5017469;28;20237;-76
2023/05/15 01:47:18;;;;;;;10.23;6.00;;;;;;;10.80;100.00;95116.19;5005467;28;20298;-76
2023/05/15 01:49:44;;;;;;;8.40;5.67;;;;;;;10.89;100.00;95109.75;5005771;28;20244;-76
2023/05/15 01:52:24;;;;;;;9.20;6.10;;;;;;;10.77;100.00;95111.34;5029637;28;20230;-75
2023/05/15 01:54:49;;;;;;;8.37;5.60;;;;;;;10.80;100.00;95110.94;5020229;28;20240;-76
2023/05/15 01:57:15;;;;;;;10.67;5.97;;;;;;;10.81;100.00;95113.38;5022932;28;20229;-75
2023/05/15 01:59:41;;;;;;;9.10;6.00;;;;;;;10.75;100.00;95102.88;5021004;28;20232;-77
2023/05/15 02:02:06;;;;;;;9.47;6.40;;;;;;;10.76;100.00;95105.31;5027691;28;20683;-76
2023/05/15 02:04:32;;;;;;;11.50;6.70;;;;;;;10.67;100.00;95114.34;5018209;28;20225;-75
2023/05/15 02:06:57;;;;;;;9.50;6.30;;;;;;;10.63;100.00;95120.13;5018870;28;20248;-75
2023/05/15 02:09:23;;;;;;;11.57;6.77;;;;;;;10.67;100.00;95119.56;5035569;28;20217;-75
2023/05/15 02:11:48;;;;;;;10.27;6.53;;;;;;;10.67;100.00;95127.44;5035754;28;20253;-75
2023/05/15 02:14:15;;;;;;;9.33;6.17;;;;;;;10.77;100.00;95130.47;5031490;28;20294;-76
2023/05/15 02:16:41;;;;;;;10.00;6.47;;;;;;;10.84;100.00;95120.03;5026127;28;20241;-75
2023/05/15 02:19:06;;;;;;;10.23;6.70;;;;;;;10.82;100.00;95122.03;5016732;28;20230;-76
2023/05/15 02:21:31;;;;;;;12.03;6.87;;;;;;;10.71;100.00;95106.88;5032633;28;20293;-76
2023/05/15 02:23:57;;;;;;;12.53;6.50;;;;;;;10.73;100.00;95116.16;5022607;28;20222;-75
2023/05/15 02:26:25;;;;;;;10.40;6.50;;;;;;;10.74;100.00;95109.13;5018985;28;20230;-75
2023/05/15 02:29:23;;;;;;;11.43;7.00;;;;;;;10.51;100.00;95111.22;5015960;28;20318;-76
2023/05/15 02:31:59;;;;;;;11.00;6.13;;;;;;;10.65;100.00;95090.16;5021972;28;20694;-76
2023/05/15 02:34:55;;;;;;;10.30;6.60;;;;;;;10.66;100.00;95090.97;5033257;28;20230;-76
2023/05/15 02:37:23;;;;;;;10.23;6.37;;;;;;;10.69;100.00;95078.31;5026290;28;20794;-76
2023/05/15 02:39:52;;;;;;;11.40;6.33;;;;;;;10.59;100.00;95083.09;5034226;28;20237;-75
2023/05/15 02:42:18;;;;;;;10.70;6.17;;;;;;;10.71;100.00;95080.72;5011448;28;20233;-75
2023/05/15 02:44:43;;;;;;;9.67;6.23;;;;;;;10.74;100.00;95096.03;5021273;28;20241;-75
2023/05/15 02:47:09;;;;;;;11.67;6.33;;;;;;;10.77;100.00;95101.66;5019011;28;21156;-75
2023/05/15 02:49:34;;;;;;;11.40;6.30;;;;;;;10.80;100.00;95100.47;5043176;28;20237;-76
2023/05/15 02:52:00;;;;;;;10.93;6.77;;;;;;;10.71;100.00;95106.88;5019350;28;20655;-76
2023/05/15 02:54:25;;;;;;;14.10;6.70;;;;;;;10.86;100.00;95106.75;5018808;28;20249;-76
2023/05/15 02:56:51;;;;;;;12.87;6.80;;;;;;;10.84;100.00;95097.25;5017520;28;20229;-75
2023/05/15 02:59:18;;;;;;;12.27;7.10;;;;;;;10.65;100.00;95090.16;5033025;28;20238;-75
2023/05/15 03:01:45;;;;;;;11.37;7.00;;;;;;;10.65;100.00;95081.50;5032542;28;20222;-76
2023/05/15 03:04:12;;;;;;;10.87;6.90;;;;;;;10.71;100.00;95089.38;5018621;28;20261;-76
2023/05/15 03:06:38;;;;;;;12.33;6.90;;;;;;;10.68;100.00;95094.19;5032136;28;20233;-76
2023/05/15 03:09:03;;;;;;;13.37;6.80;;;;;;;10.68;100.00;95096.81;5018778;28;20241;-76
2023/05/15 03:11:29;;;;;;;14.13;7.10;;;;;;;10.67;100.00;95103.06;5032686;28;20241;-76
2023/05/15 03:13:54;;;;;;;9.30;6.63;;;;;;;10.69;100.00;95109.72;5022832;28;20611;-75
2023/05/15 03:16:20;;;;;;;11.73;7.03;;;;;;;10.80;100.00;95119.63;5035555;28;20295;-76
2023/05/15 03:18:45;;;;;;;10.53;6.50;;;;;;;10.87;100.00;95108.38;5028420;28;20768;-76
2023/05/15 03:21:11;;;;;;;13.47;7.07;;;;;;;10.71;100.00;95104.28;5034070;28;20236;-76
2023/05/15 03:23:37;;;;;;;10.73;7.00;;;;;;;10.69;100.00;95111.53;5030142;28;20307;-75
2023/05/15 03:26:02;;;;;;;12.33;6.90;;;;;;;10.77;100.00;95108.75;5002740;28;20265;-75
2023/05/15 03:28:28;;;;;;;11.50;7.27;;;;;;;10.74;100.00;95101.28;5030397;28;20265;-76
2023/05/15 03:30:53;;;;;;;11.97;7.00;;;;;;;10.77;100.00;95106.91;5028715;28;20280;-75
2023/05/15 03:33:19;;;;;;;10.90;6.87;;;;;;;10.78;100.00;95094.63;5019759;28;20273;-76
2023/05/15 03:35:44;;;;;;;13.43;7.10;;;;;;;10.79;100.00;95094.41;5042132;28;20785;-76
2023/05/15 03:38:10;;;;;;;10.67;7.30;;;;;;;10.84;100.00;95094.66;5037545;28;20276;-74
2023/05/15 03:40:38;;;;;;;11.77;6.80;;;;;;;10.86;100.00;95089.22;5035598;28;20229;-75
2023/05/15 03:43:05;;;;;;;12.43;7.50;;;;;;;10.79;100.00;95083.16;5031598;28;20230;-75
2023/05/15 03:45:33;;;;;;;17.30;7.60;;;;;;;10.85;100.00;95082.38;5014102;28;20233;-75
2023/05/15 03:47:58;;;;;;;12.80;7.40;;;;;;;10.87;100.00;95084.81;5019326;28;20233;-74
2023/05/15 03:50:23;;;;;;;11.27;7.67;;;;;;;10.98;100.00;95094.69;5014806;28;20252;-73
2023/05/15 03:52:49;;;;;;;13.97;7.97;;;;;;;11.00;100.00;95090.06;5018103;28;20257;-75
2023/05/15 03:55:14;;;;;;;13.13;7.97;;;;;;;10.99;100.00;95102.34;5035756;28;20287;-74
2023/05/15 03:57:40;;;;;;;12.63;8.40;;;;;;;11.06;100.00;95100.56;5020264;28;20439;-73
2023/05/15 04:00:09;;;;;;;11.97;8.20;;;;;;;11.10;100.00;95100.97;5029861;28;20238;-75
2023/05/15 04:02:35;;;;;;;15.80;8.80;;;;;;;11.04;100.00;95099.94;5031331;28;20279;-74
2023/05/15 04:05:02;;;;;;;13.37;8.77;;;;;;;11.07;100.00;95102.19;5025504;28;20233;-75
2023/05/15 04:07:28;;;;;;;13.60;9.07;;;;;;;11.06;100.00;95100.56;5033100;28;20244;-75
2023/05/15 04:09:53;;;;;;;16.27;9.90;;;;;;;11.03;100.00;95094.91;5037630;28;20229;-75
2023/05/15 04:12:19;;;;;;;14.87;10.03;;;;;;;10.94;100.00;95093.50;5028417;28;20233;-74
2023/05/15 04:14:44;;;;;;;16.37;10.03;;;;;;;11.02;100.00;95093.28;5031691;28;20255;-74
2023/05/15 04:17:10;;;;;;;16.17;9.73;;;;;;;11.17;100.00;95109.66;5017384;28;20247;-75
2023/05/15 04:19:35;;;;;;;14.43;9.57;;;;;;;11.19;100.00;95118.13;5017516;28;20321;-75
2023/05/15 04:22:00;;;;;;;15.80;9.80;;;;;;;11.29;100.00;95118.56;5008025;28;20594;-74
2023/05/15 04:24:26;;;;;;;17.63;10.53;;;;;;;11.32;100.00;95113.72;5032962;28;20356;-75
2023/05/15 04:26:51;;;;;;;21.37;10.40;;;;;;;11.30;100.00;95123.59;5031025;28;20292;-74
2023/05/15 04:29:17;;;;;;;18.37;10.33;;;;;;;11.29;100.00;95115.94;5030710;28;20245;-75
2023/05/15 04:31:42;;;;;;;20.23;10.87;;;;;;;11.23;100.00;95111.47;5014487;28;20224;-74
2023/05/15 04:34:08;;;;;;;16.63;10.50;;;;;;;11.22;100.00;95115.94;5025764;28;20235;-74
2023/05/15 04:36:33;;;;;;;17.80;10.40;;;;;;;11.30;100.00;95114.91;5027863;28;20293;-74
2023/05/15 04:38:59;;;;;;;18.40;10.23;;;;;;;11.29;100.00;95100.22;5031682;28;20259;-75
2023/05/15 04:41:25;;;;;;;19.60;10.77;;;;;;;11.40;100.00;95102.22;5030776;28;20244;-75
2023/05/15 04:43:51;;;;;;;19.40;11.50;;;;;;;11.43;100.00;95091.34;5040786;28;20218;-74
2023/05/15 04:46:16;;;;;;;21.63;12.17;;;;;;;11.48;100.00;95091.56;5038723;28;20317;-74
2023/05/15 04:48:41;;;;;;;22.00;12.53;;;;;;;11.52;100.00;95074.41;5007400;28;20232;-75
2023/05/15 04:51:07;;;;;;;23.40;13.13;;;;;;;11.53;100.00;95086.53;5012304;28;20226;-74
2023/05/15 04:53:32;;;;;;;21.30;12.40;;;;;;;11.53;100.00;95097.03;5016155;28;20222;-74
2023/05/15 04:55:58;;;;;;;20.43;12.60;;;;;;;11.50;100.00;95103.47;5032556;28;20280;-75
2023/05/15 04:58:23;;;;;;;19.13;12.00;;;;;;;11.44;100.00;95100.81;5028978;28;20272;-74
2023/05/15 05:00:49;;;;;;;21.07;12.03;;;;;;;11.49;100.00;95095.78;5006210;28;20620;-75
2023/05/15 05:03:14;;;;;;;22.63;13.03;;;;;;;11.59;100.00;95100.63;5032100;28;20233;-74
2023/05/15 05:05:40;;;;;;;20.10;12.07;;;;;;;11.47;100.00;95093.38;5031017;28;20241;-74
2023/05/15 05:08:05;;;;;;;21.30;11.80;;;;;;;11.43;100.00;95093.97;5027460;28;20852;-74
2023/05/15 05:10:31;;;;;;;17.80;11.07;;;;;;;11.45;100.00;95091.97;5033384;28;20225;-75
2023/05/15 05:12:56;;;;;;;18.27;10.93;;;;;;;11.29;100.00;95074.81;5032971;28;20313;-74
2023/05/15 05:15:21;;;;;;;16.97;11.03;;;;;;;11.31;100.00;95072.81;5032281;28;20230;-74
2023/05/15 05:17:47;;;;;;;20.90;11.47;;;;;;;11.37;100.00;95069.38;5030916;28;20295;-73
2023/05/15 05:20:12;;;;;;;20.30;11.30;;;;;;;11.46;100.00;95073.41;5016209;28;20295;-74
2023/05/15 05:22:39;;;;;;;19.13;11.50;;;;;;;11.54;100.00;95080.25;5028862;28;20673;-74
2023/05/15 05:25:05;;;;;;;20.80;11.50;;;;;;;11.68;100.00;95076.66;5014945;28;20266;-74
2023/05/15 05:27:31;;;;;;;18.80;11.40;;;;;;;11.75;100.00;95074.06;5019281;28;20238;-75
2023/05/15 05:29:56;;;;;;;23.63;12.00;;;;;;;11.69;100.00;95082.72;5017453;28;20633;-74
2023/05/15 05:32:22;;;;;;;22.60;12.37;;;;;;;11.82;100.00;95088.75;5033119;28;20950;-75
2023/05/15 05:34:48;;;;;;;19.67;11.93;;;;;;;11.83;100.00;95087.75;5008650;28;20229;-75
2023/05/15 05:37:15;;;;;;;20.60;11.87;;;;;;;11.75;100.00;95079.31;5014947;28;20289;-76
2023/05/15 05:39:41;;;;;;;22.43;12.50;;;;;;;11.82;100.00;95075.66;5016186;28;20246;-76
2023/05/15 05:42:06;;;;;;;21.17;12.47;;;;;;;12.00;100.00;95070.59;5014178;28;20626;-74
2023/05/15 05:44:33;;;;;;;26.20;13.23;;;;;;;12.03;100.00;95072.00;5013716;28;20602;-74
2023/05/15 05:46:59;;;;;;;23.30;12.83;;;;;;;12.18;100.00;95077.81;5014852;28;20230;-74
2023/05/15 05:49:24;;;;;;;22.27;13.20;;;;;;;12.28;100.00;95074.75;5013556;28;20248;-76
2023/05/15 05:51:49;;;;;;;21.70;12.53;;;;;;;12.28;100.00;95074.75;5011450;28;20229;-75
2023/05/15 05:54:17;;;;;;;25.57;12.43;;;;;;;12.27;100.00;95073.16;4991789;28;20237;-75
2023/05/15 05:56:42;;;;;;;24.47;13.27;;;;;;;12.39;100.00;95082.03;5014364;28;20345;-73
2023/05/15 05:59:09;;;;;;;23.90;12.63;;;;;;;12.51;100.00;95070.69;5014972;28;20722;-74
2023/05/15 06:01:35;;;;;;;24.57;13.33;;;;;;;12.43;100.00;95075.34;5020482;28;20300;-74
2023/05/15 06:04:00;;;;;;;23.57;13.63;;;;;;;12.56;100.00;95075.31;5012556;28;20251;-75
2023/05/15 06:06:26;;;;;;;26.80;13.97;;;;;;;12.43;100.00;95076.16;4996396;28;20227;-74
2023/05/15 06:08:51;;;;;;;28.47;13.67;;;;;;;12.61;100.00;95083.38;4990480;28;20659;-74
2023/05/15 06:11:16;;;;;;;29.10;14.83;;;;;;;12.71;100.00;95083.72;5014729;28;20765;-74
2023/05/15 06:13:42;;;;;;;28.37;14.67;;;;;;;12.59;100.00;95088.81;4991962;28;20234;-74
2023/05/15 06:16:07;;;;;;;27.33;14.30;;;;;;;12.63;100.00;95074.25;4987617;28;20731;-75
2023/05/15 06:18:33;;;;;;;30.57;15.50;;;;;;;12.66;100.00;95070.41;4998266;28;20226;-74
2023/05/15 06:20:59;;;;;;;25.97;14.07;;;;;;;12.79;100.00;95067.72;5015164;28;20230;-75
2023/05/15 06:23:25;;;;;;;30.20;16.17;;;;;;;12.80;100.00;95075.38;4999734;28;20227;-76
2023/05/15 06:25:51;;;;;;;36.53;16.67;;;;;;;12.87;100.00;95069.31;4999544;28;20261;-75
2023/05/15 06:28:16;;;;;;;31.93;16.30;;;;;;;12.95;100.00;95077.75;5012801;28;20620;-75
2023/05/15 06:30:42;;;;;;;27.73;14.10;;;;;;;12.80;100.00;95070.13;5012925;28;20226;-74
2023/05/15 06:33:07;;;;;;;29.73;13.87;;;;;;;12.83;100.00;95080.22;5012898;28;20229;-75
2023/05/15 06:35:33;;;;;;;29.10;14.03;;;;;;;12.89;100.00;95083.03;4995597;28;20292;-75
2023/05/15 06:37:58;;;;;;;30.80;13.80;;;;;;;12.90;100.00;95087.28;5012035;28;20722;-75
2023/05/15 06:40:23;;;;;;;28.33;14.20;;;;;;;12.96;100.00;95092.50;5031650;28;20574;-74
2023/05/15 06:42:49;;;;;;;28.47;13.93;;;;;;;13.03;100.00;95095.09;5011681;28;20242;-74
2023/05/15 06:45:15;;;;;;;25.17;14.27;;;;;;;13.12;100.00;95093.84;5014049;28;20231;-74
2023/05/15 06:47:40;;;;;;;26.23;14.57;;;;;;;13.34;100.00;95098.59;5012117;28;20282;-74
2023/05/15 06:50:06;;;;;;;25.67;13.93;;;;;;;13.38;100.00;95093.69;4997788;28;20248;-74
2023/05/15 06:52:32;;;;;;;21.97;12.37;;;;;;;13.35;100.00;95089.66;5028154;28;20699;-74
2023/05/15 06:54:57;;;;;;;25.57;13.53;;;;;;;13.41;100.00;95093.28;4983256;28;20234;-74
2023/05/15 06:57:23;;;;;;;24.47;13.57;;;;;;;13.61;100.00;95099.22;5013893;28;20241;-74
2023/05/15 06:59:48;;;;;;;23.40;12.17;;;;;;;13.82;100.00;95100.69;5012424;28;20687;-74
2023/05/15 07:02:14;;;;;;;25.07;12.20;;;;;;;13.93;100.00;95108.66;5009399;28;20274;-74
2023/05/15 07:04:39;;;;;;;21.83;12.60;;;;;;;14.06;100.00;95100.69;5000949;28;20234;-73
2023/05/15 07:07:05;;;;;;;23.73;13.33;;;;;;;14.14;100.00;95097.75;5014223;28;20234;-74
2023/05/15 07:09:31;;;;;;;26.47;13.73;;;;;;;14.05;100.00;95093.78;5011547;28;20306;-74
2023/05/15 07:11:56;;;;;;;24.27;13.87;;;;;;;14.06;100.00;95087.50;5018258;28;20594;-74
2023/05/15 07:14:22;;;;;;;25.90;13.63;;;;;;;14.17;100.00;95086.78;5009835;28;20231;-74
2023/05/15 07:16:47;;;;;;;25.23;12.47;;;;;;;14.12;100.00;95091.09;5008878;28;20333;-75
2023/05/15 07:19:16;;;;;;;22.67;12.83;;;;;;;14.15;100.00;95091.47;5025881;28;20235;-73
2023/05/15 07:21:42;;;;;;;25.50;13.57;;;;;;;14.27;100.00;95096.81;5013276;28;20604;-74
2023/05/15 07:24:07;;;;;;;21.63;12.57;;;;;;;14.27;100.00;95093.38;4997016;28;20281;-74
2023/05/15 07:26:33;;;;;;;22.47;12.50;;;;;;;14.27;100.00;95088.13;5010357;28;20234;-74
2023/05/15 07:28:58;;;;;;;21.67;12.43;;;;;;;14.18;100.00;95093.69;5008811;28;20711;-74
2023/05/15 07:31:24;;;;;;;23.03;12.93;;;;;;;14.18;100.00;95095.50;5009698;28;20249;-75
2023/05/15 07:33:49;;;;;;;19.70;11.57;;;;;;;14.15;100.00;95098.56;4994464;28;20228;-77
2023/05/15 07:36:15;;;;;;;22.57;12.17;;;;;;;14.19;100.00;95097.91;5011277;28;20233;-77
2023/05/15 07:38:40;;;;;;;22.97;13.13;;;;;;;14.17;100.00;95088.63;4990423;28;20275;-77
2023/05/15 07:41:06;;;;;;;23.20;12.20;;;;;;;14.10;100.00;95083.41;4993435;28;20241;-77
2023/05/15 07:43:31;;;;;;;21.93;12.70;;;;;;;14.02;100.00;95086.31;4995176;28;20233;-76
2023/05/15 07:45:57;;;;;;;23.23;13.07;;;;;;;14.03;100.00;95089.75;4993960;28;20269;-77
2023/05/15 07:48:22;;;;;;;25.17;13.00;;;;;;;13.87;100.00;95098.22;5004065;28;20229;-76
2023/05/15 07:50:49;;;;;;;27.17;14.40;;;;;;;14.04;100.00;95086.91;5008497;28;20260;-76
2023/05/15 07:53:18;;;;;;;25.63;14.20;;;;;;;14.06;100.00;95082.25;5012013;28;20227;-77
2023/05/15 07:55:44;;;;;;;24.23;13.93;;;;;;;14.14;100.00;95079.31;5019352;28;20234;-76
2023/05/15 07:58:09;;;;;;;25.07;14.60;;;;;;;14.12;100.00;95099.00;5015071;28;20715;-77
2023/05/15 08:00:35;;;;;;;27.73;15.00;;;;;;;14.02;100.00;95112.63;5000936;28;20303;-75
2023/05/15 08:03:01;;;;;;;28.77;15.13;;;;;;;13.96;100.00;95108.25;5015450;28;20238;-76
2023/05/15 08:05:26;;;;;;;27.23;14.97;;;;;;;13.98;100.00;95113.28;5035653;28;20326;-76
2023/05/15 08:07:52;;;;;;;27.50;15.10;;;;;;;14.00;100.00;95121.75;5014801;28;20222;-76
2023/05/15 08:10:17;;;;;;;28.40;15.77;;;;;;;14.03;100.00;95121.34;5010408;28;20235;-75
2023/05/15 08:12:45;;;;;;;26.93;15.10;;;;;;;14.11;100.00;95116.59;5021804;28;20237;-74
2023/05/15 08:15:11;;;;;;;27.37;15.53;;;;;;;14.00;100.00;95113.88;5010039;28;20253;-75
2023/05/15 08:17:36;;;;;;;28.10;15.93;;;;;;;13.89;100.00;95117.22;5008992;28;20603;-74
2023/05/15 08:20:02;;;;;;;31.10;16.30;;;;;;;13.87;100.00;95121.88;4999972;28;20292;-74
2023/05/15 08:22:29;;;;;;;27.33;15.83;;;;;;;13.75;100.00;95107.81;5013087;28;20233;-74
2023/05/15 08:24:54;;;;;;;27.57;16.50;;;;;;;13.78;100.00;95110.81;4996238;28;20688;-75
2023/05/15 08:27:20;;;;;;;31.77;16.30;;;;;;;13.96;100.00;95113.50;4980682;28;20250;-75
2023/05/15 08:29:46;;;;;;;30.23;15.77;;;;;;;14.00;100.00;95117.31;5014051;28;20680;-74
2023/05/15 08:32:11;;;;;;;29.43;15.63;;;;;;;13.97;100.00;95111.69;5027895;28;20718;-74
2023/05/15 08:34:37;;;;;;;33.33;18.87;;;;;;;13.95;100.00;95117.16;4997483;28;20238;-75
2023/05/15 08:37:03;;;;;;;41.83;22.90;;;;;;;13.94;100.00;95112.94;5007607;28;20226;-74
2023/05/15 08:39:28;;;;;;;37.33;21.53;;;;;;;14.00;100.00;95105.97;4992541;28;20303;-75
2023/05/15 08:42:17;;;;;;;45.97;23.80;;;;;;;14.19;100.00;95105.81;5011913;28;20284;-75
2023/05/15 08:44:43;;;;;;;37.70;20.53;;;;;;;14.38;100.00;95093.50;4999819;28;20304;-74
2023/05/15 08:47:09;;;;;;;29.93;16.33;;;;;;;14.53;100.00;95096.59;5012931;28;20707;-72
2023/05/15 08:49:53;;;;;;;28.63;16.83;;;;;;;14.71;100.00;95086.03;5014267;28;20699;-74
2023/05/15 08:52:18;;;;;;;28.77;15.47;;;;;;;14.80;100.00;95090.00;5013990;28;20231;-74
2023/05/15 08:54:46;;;;;;;27.37;14.93;;;;;;;14.79;100.00;95101.56;4980657;28;20264;-74
2023/05/15 08:57:12;;;;;;;22.93;13.63;;;;;;;14.57;99.46;95089.84;5012742;28;20753;-74
2023/05/15 08:59:37;;;;;;;26.00;13.23;;;;;;;14.41;100.00;95082.53;4992087;28;20239;-74
2023/05/15 09:02:03;;;;;;;25.93;13.90;;;;;;;14.44;100.00;95084.72;5012693;28;20265;-74
2023/05/15 09:04:28;;;;;;;26.73;13.10;;;;;;;14.32;100.00;95080.41;5009063;28;20593;-74
2023/05/15 09:06:54;;;;;;;25.57;13.73;;;;;;;14.21;100.00;95074.00;5010938;28;20238;-73
2023/05/15 09:09:20;;;;;;;23.77;14.00;;;;;;;14.22;100.00;95069.53;4997035;28;20242;-74
2023/05/15 09:11:46;;;;;;;25.27;14.20;;;;;;;14.35;100.00;95080.78;5012407;28;20225;-73
2023/05/15 09:14:12;;;;;;;27.97;15.33;;;;;;;14.19;100.00;95086.56;4998067;28;20292;-73
2023/05/15 09:16:38;;;;;;;26.00;14.70;;;;;;;14.27;100.00;95081.03;5013912;28;20742;-74
2023/05/15 09:19:04;;;;;;;30.60;15.87;;;;;;;14.41;100.00;95085.16;4986609;28;20246;-75
2023/05/15 09:21:33;;;;;;;27.83;14.73;;;;;;;14.49;99.68;95079.63;4995562;28;20663;-73
2023/05/15 09:24:17;;;;;;;26.90;14.67;;;;;;;14.47;99.08;95073.75;5010145;28;20222;-74
2023/05/15 09:26:43;;;;;;;28.93;15.53;;;;;;;14.56;99.55;95054.00;5011188;28;20263;-73
2023/05/15 09:29:08;;;;;;;26.47;15.40;;;;;;;14.78;99.30;95062.25;4990800;28;20231;-75
2023/05/15 09:31:34;;;;;;;27.27;14.87;;;;;;;14.85;98.07;95061.13;5003576;28;20235;-74
2023/05/15 09:34:08;;;;;;;26.90;14.87;;;;;;;15.08;97.79;95063.06;5009424;28;20218;-74
2023/05/15 09:36:33;;;;;;;25.50;14.50;;;;;;;15.07;96.53;95053.53;5011083;28;20226;-74
2023/05/15 09:38:59;;;;;;;29.60;15.27;;;;;;;15.28;95.31;95053.06;5008980;28;20265;-73
2023/05/15 09:41:25;;;;;;;31.07;15.23;;;;;;;15.52;95.73;95043.41;4993596;28;20234;-74
2023/05/15 09:43:51;;;;;;;26.27;14.57;;;;;;;15.73;96.45;95045.50;5010642;28;20638;-73
2023/05/15 09:46:16;;;;;;;23.63;13.80;;;;;;;15.54;93.79;95033.44;5003068;28;20778;-74
2023/05/15 09:48:42;;;;;;;24.23;13.37;;;;;;;15.69;94.31;95035.63;5011523;28;20237;-74
2023/05/15 09:51:18;;;;;;;23.90;13.37;;;;;;;15.64;93.74;95028.41;5008302;28;20238;-74
2023/05/15 09:53:52;;;;;;;18.67;11.87;;;;;;;15.63;93.63;95031.25;5021147;28;20375;-74
2023/05/15 09:56:17;;;;;;;22.47;12.20;;;;;;;15.61;93.17;95023.56;4987401;28;20234;-74
2023/05/15 09:58:59;;;;;;;24.07;12.60;;;;;;;15.66;95.04;95025.53;5003685;28;20234;-74
2023/05/15 10:01:26;;;;;;;27.07;13.40;;;;;;;15.67;95.50;95027.13;5021761;28;20245;-74
2023/05/15 10:04:02;;;;;;;23.67;12.90;;;;;;;15.72;96.74;95033.31;5030311;28;20230;-74
2023/05/15 10:06:34;;;;;;;24.93;13.13;;;;;;;15.70;96.65;95019.56;5011301;28;20329;-74
2023/05/15 10:09:01;;;;;;;25.67;12.90;;;;;;;15.56;96.21;95033.19;5030068;28;20306;-73
2023/05/15 10:11:26;;;;;;;21.10;12.43;;;;;;;15.47;96.57;95030.09;5027730;28;20738;-74
2023/05/15 10:13:51;;;;;;;22.40;12.10;;;;;;;15.46;95.23;95025.84;5007605;28;20226;-73
2023/05/15 10:16:17;;;;;;;19.73;12.23;;;;;;;15.44;94.44;95004.97;5018104;28;20243;-75
2023/05/15 10:18:43;;;;;;;21.67;12.43;;;;;;;15.45;95.08;95016.34;5010421;28;20237;-73
2023/05/15 10:21:08;;;;;;;21.43;12.47;;;;;;;15.36;95.29;95022.91;4997463;28;20258;-74
2023/05/15 10:23:37;;;;;;;22.87;12.33;;;;;;;15.48;96.37;95035.13;5011663;28;20325;-74
2023/05/15 10:26:35;;;;;;;23.73;12.67;;;;;;;15.38;96.34;95034.84;4997620;28;20242;-74
2023/05/15 10:29:00;;;;;;;20.30;11.10;;;;;;;15.33;93.91;95036.56;5028944;28;20269;-74
2023/05/15 10:31:26;;;;;;;23.23;12.57;;;;;;;15.40;95.74;95043.31;5026461;28;20237;-73
2023/05/15 10:33:51;;;;;;;23.57;11.87;;;;;;;15.41;93.49;95044.94;5035729;28;20233;-73
2023/05/15 10:36:17;;;;;;;23.30;12.37;;;;;;;15.42;94.84;95049.22;5035710;28;20245;-73
2023/05/15 10:38:42;;;;;;;20.27;12.27;;;;;;;15.44;95.73;95062.16;5031526;28;20261;-74
2023/05/15 10:41:08;;;;;;;23.10;12.50;;;;;;;15.37;100.00;95067.53;5033406;28;20234;-74
2023/05/15 10:43:33;;;;;;;21.50;12.60;;;;;;;15.29;99.32;95061.75;5019417;28;20649;-75
2023/05/15 10:45:59;;;;;;;22.57;12.50;;;;;;;15.31;98.23;95054.44;5025426;28;20774;-74
2023/05/15 10:48:24;;;;;;;23.63;12.43;;;;;;;15.37;97.09;95056.19;5031878;28;20230;-73
2023/05/15 10:50:50;;;;;;;22.30;11.97;;;;;;;15.33;95.66;95058.44;5032060;28;20249;-74
2023/05/15 10:53:16;;;;;;;22.47;11.87;;;;;;;15.38;93.10;95055.16;5017659;28;20738;-74
2023/05/15 10:55:41;;;;;;;22.43;12.47;;;;;;;15.37;93.17;95049.06;5030917;28;20237;-74
2023/05/15 10:58:08;;;;;;;26.13;12.50;;;;;;;15.38;93.73;95049.88;5026756;28;20256;-76
2023/05/15 11:00:41;;;;;;;22.67;11.93;;;;;;;15.32;94.66;95051.59;5033463;28;20466;-73
2023/05/15 11:03:07;;;;;;;22.20;12.37;;;;;;;15.25;98.44;95050.06;5018093;28;20274;-74
2023/05/15 11:06:11;;;;;;;22.07;12.93;;;;;;;15.11;100.00;95053.91;5033476;28;20864;-74
2023/05/15 11:08:40;;;;;;;30.33;13.97;;;;;;;15.04;98.58;95045.28;5024743;28;20237;-74
2023/05/15 11:11:06;;;;;;;25.33;13.43;;;;;;;15.08;97.54;95044.63;5003525;28;20223;-74
2023/05/15 11:14:08;;;;;;;28.37;15.67;;;;;;;15.07;97.03;95044.84;5014756;28;20233;-75